sensor_id;sensor_type;location;lat;lon;timestamp;pressure;altitude;pressure_sealevel;temperature;humidity
11223;BME280;5668;52.012;8.724;2023-02-04T00:00:12;101435.03;;;8.11;93.02
11223;BME280;5668;52.012;8.724;2023-02-04T00:02:41;101430.66;;;8.12;92.38
11223;BME280;5668;52.012;8.724;2023-02-04T00:05:10;101438.38;;;8.13;92.96
11223;BME280;5668;52.012;8.724;2023-02-04T00:07:38;101435.78;;;8.13;92.26
11223;BME280;5668;52.012;8.724;2023-02-04T00:10:07;101437.53;;;8.13;92.95
11223;BME280;5668;52.012;8.724;2023-02-04T00:12:36;101433.13;;;8.15;92.86
11223;BME280;5668;52.012;8.724;2023-02-04T00:15:04;101433.13;;;8.15;92.92
11223;BME280;5668;52.012;8.724;2023-02-04T00:17:31;101435.78;;;8.13;93.55
11223;BME280;5668;52.012;8.724;2023-02-04T00:19:58;101440.00;;;8.16;92.42
11223;BME280;5668;52.012;8.724;2023-02-04T00:22:25;101450.38;;;8.16;93.02
11223;BME280;5668;52.012;8.724;2023-02-04T00:24:53;101445.19;;;8.16;92.15
11223;BME280;5668;52.012;8.724;2023-02-04T00:27:21;101450.41;;;8.14;92.59
11223;BME280;5668;52.012;8.724;2023-02-04T00:29:50;101455.53;;;8.16;92.58
11223;BME280;5668;52.012;8.724;2023-02-04T00:32:17;101464.16;;;8.16;92.75
11223;BME280;5668;52.012;8.724;2023-02-04T00:34:44;101462.47;;;8.15;93.85
11223;BME280;5668;52.012;8.724;2023-02-04T00:37:11;101460.78;;;8.14;93.56
11223;BME280;5668;52.012;8.724;2023-02-04T00:39:39;101459.22;;;8.10;93.01
11223;BME280;5668;52.012;8.724;2023-02-04T00:42:06;101463.63;;;8.08;93.49
11223;BME280;5668;52.012;8.724;2023-02-04T00:44:33;101463.63;;;8.08;94.32
11223;BME280;5668;52.012;8.724;2023-02-04T00:47:03;101461.94;;;8.07;94.30
11223;BME280;5668;52.012;8.724;2023-02-04T00:49:31;101472.28;;;8.07;94.50
11223;BME280;5668;52.012;8.724;2023-02-04T00:51:59;101477.41;;;8.09;94.53
11223;BME280;5668;52.012;8.724;2023-02-04T00:54:26;101476.69;;;8.05;94.67
11223;BME280;5668;52.012;8.724;2023-02-04T00:56:54;101482.66;;;8.07;95.50
11223;BME280;5668;52.012;8.724;2023-02-04T00:59:21;101503.28;;;8.09;94.82
11223;BME280;5668;52.012;8.724;2023-02-04T01:01:48;101498.97;;;8.09;94.63
11223;BME280;5668;52.012;8.724;2023-02-04T01:04:21;101509.31;;;8.09;94.66
11223;BME280;5668;52.012;8.724;2023-02-04T01:06:48;101509.25;;;8.11;94.83
11223;BME280;5668;52.012;8.724;2023-02-04T01:09:15;101519.63;;;8.11;94.75
11223;BME280;5668;52.012;8.724;2023-02-04T01:11:43;101515.44;;;8.07;95.22
11223;BME280;5668;52.012;8.724;2023-02-04T01:14:10;101523.16;;;8.08;94.90
11223;BME280;5668;52.012;8.724;2023-02-04T01:16:37;101520.56;;;8.08;94.95
11223;BME280;5668;52.012;8.724;2023-02-04T01:19:04;101530.94;;;8.08;95.57
11223;BME280;5668;52.012;8.724;2023-02-04T01:21:33;101537.06;;;8.06;95.53
11223;BME280;5668;52.012;8.724;2023-02-04T01:24:00;101552.66;;;8.04;95.35
11223;BME280;5668;52.012;8.724;2023-02-04T01:26:28;101556.09;;;8.05;95.27
11223;BME280;5668;52.012;8.724;2023-02-04T01:28:55;101557.78;;;8.06;95.14
11223;BME280;5668;52.012;8.724;2023-02-04T01:31:22;101554.41;;;8.04;95.49
11223;BME280;5668;52.012;8.724;2023-02-04T01:33:50;101559.69;;;8.01;94.91
11223;BME280;5668;52.012;8.724;2023-02-04T01:36:17;101560.59;;;8.00;96.02
11223;BME280;5668;52.012;8.724;2023-02-04T01:38:48;101561.41;;;8.02;96.18
11223;BME280;5668;52.012;8.724;2023-02-04T01:41:16;101564.81;;;8.02;95.19
11223;BME280;5668;52.012;8.724;2023-02-04T01:43:44;101574.28;;;8.03;96.10
11223;BME280;5668;52.012;8.724;2023-02-04T01:46:11;101569.09;;;8.03;96.29
11223;BME280;5668;52.012;8.724;2023-02-04T01:48:38;101573.53;;;8.00;96.42
11223;BME280;5668;52.012;8.724;2023-02-04T01:51:08;101579.66;;;7.97;96.29
11223;BME280;5668;52.012;8.724;2023-02-04T01:53:36;101573.59;;;7.98;95.56
11223;BME280;5668;52.012;8.724;2023-02-04T01:56:14;101583.06;;;7.99;95.79
11223;BME280;5668;52.012;8.724;2023-02-04T01:58:42;101582.44;;;7.93;96.84
11223;BME280;5668;52.012;8.724;2023-02-04T02:01:11;101585.00;;;7.94;96.52
11223;BME280;5668;52.012;8.724;2023-02-04T02:03:39;101593.75;;;7.90;96.68
11223;BME280;5668;52.012;8.724;2023-02-04T02:06:07;101594.44;;;7.95;96.64
11223;BME280;5668;52.012;8.724;2023-02-04T02:08:35;101591.06;;;7.93;95.99
11223;BME280;5668;52.012;8.724;2023-02-04T02:11:03;101583.41;;;7.90;96.22
11223;BME280;5668;52.012;8.724;2023-02-04T02:13:32;101605.03;;;7.89;95.81
11223;BME280;5668;52.012;8.724;2023-02-04T02:15:59;101601.53;;;7.90;95.91
11223;BME280;5668;52.012;8.724;2023-02-04T02:18:27;101598.09;;;7.90;96.00
11223;BME280;5668;52.012;8.724;2023-02-04T02:20:55;101610.31;;;7.86;95.93
11223;BME280;5668;52.012;8.724;2023-02-04T02:23:41;101612.81;;;7.89;95.70
11223;BME280;5668;52.012;8.724;2023-02-04T02:26:11;101613.00;;;7.83;95.94
11223;BME280;5668;52.012;8.724;2023-02-04T02:28:38;101623.34;;;7.83;95.56
11223;BME280;5668;52.012;8.724;2023-02-04T02:31:06;101627.59;;;7.86;96.39
11223;BME280;5668;52.012;8.724;2023-02-04T02:33:34;101639.56;;;7.88;96.19
11223;BME280;5668;52.012;8.724;2023-02-04T02:36:01;101657.75;;;7.87;96.05
11223;BME280;5668;52.012;8.724;2023-02-04T02:38:29;101657.78;;;7.85;95.38
11223;BME280;5668;52.012;8.724;2023-02-04T02:40:58;101657.88;;;7.82;96.59
11223;BME280;5668;52.012;8.724;2023-02-04T02:43:26;101669.94;;;7.83;96.51
11223;BME280;5668;52.012;8.724;2023-02-04T02:45:57;101671.53;;;7.87;96.89
11223;BME280;5668;52.012;8.724;2023-02-04T02:48:25;101674.97;;;7.88;95.81
11223;BME280;5668;52.012;8.724;2023-02-04T02:50:53;101672.31;;;7.89;96.92
11223;BME280;5668;52.012;8.724;2023-02-04T02:53:20;101673.03;;;7.93;95.70
11223;BME280;5668;52.012;8.724;2023-02-04T02:55:48;101674.72;;;7.94;95.70
11223;BME280;5668;52.012;8.724;2023-02-04T02:58:21;101670.41;;;7.94;96.04
11223;BME280;5668;52.012;8.724;2023-02-04T03:00:49;101669.56;;;7.94;95.23
11223;BME280;5668;52.012;8.724;2023-02-04T03:03:20;101666.88;;;7.97;95.14
11223;BME280;5668;52.012;8.724;2023-02-04T03:05:52;101672.03;;;7.97;95.44
11223;BME280;5668;52.012;8.724;2023-02-04T03:08:21;101678.88;;;7.98;95.19
11223;BME280;5668;52.012;8.724;2023-02-04T03:10:49;101672.81;;;7.99;95.41
11223;BME280;5668;52.012;8.724;2023-02-04T03:13:17;101684.00;;;7.99;94.82
11223;BME280;5668;52.012;8.724;2023-02-04T03:15:46;101684.91;;;7.98;94.44
11223;BME280;5668;52.012;8.724;2023-02-04T03:18:16;101683.16;;;7.99;94.04
11223;BME280;5668;52.012;8.724;2023-02-04T03:20:45;101686.03;;;7.91;93.69
11223;BME280;5668;52.012;8.724;2023-02-04T03:23:13;101692.22;;;7.87;92.60
11223;BME280;5668;52.012;8.724;2023-02-04T03:25:41;101699.19;;;7.85;92.73
11223;BME280;5668;52.012;8.724;2023-02-04T03:28:08;101701.00;;;7.83;92.31
11223;BME280;5668;52.012;8.724;2023-02-04T03:30:37;101703.56;;;7.83;91.48
11223;BME280;5668;52.012;8.724;2023-02-04T03:33:04;101714.09;;;7.78;91.97
11223;BME280;5668;52.012;8.724;2023-02-04T03:35:31;101719.31;;;7.77;91.21
11223;BME280;5668;52.012;8.724;2023-02-04T03:37:59;101730.56;;;7.76;90.04
11223;BME280;5668;52.012;8.724;2023-02-04T03:40:26;101722.75;;;7.77;90.58
11223;BME280;5668;52.012;8.724;2023-02-04T03:42:54;101730.53;;;7.77;90.52
11223;BME280;5668;52.012;8.724;2023-02-04T03:45:22;101731.31;;;7.80;91.03
11223;BME280;5668;52.012;8.724;2023-02-04T03:47:50;101739.13;;;7.78;90.44
11223;BME280;5668;52.012;8.724;2023-02-04T03:50:18;101742.63;;;7.77;91.31
11223;BME280;5668;52.012;8.724;2023-02-04T03:52:45;101753.09;;;7.74;90.89
11223;BME280;5668;52.012;8.724;2023-02-04T03:55:14;101749.66;;;7.73;89.87
11223;BME280;5668;52.012;8.724;2023-02-04T03:57:41;101753.19;;;7.71;89.60
11223;BME280;5668;52.012;8.724;2023-02-04T04:00:09;101756.75;;;7.67;90.07
11223;BME280;5668;52.012;8.724;2023-02-04T04:02:37;101758.56;;;7.65;91.24
11223;BME280;5668;52.012;8.724;2023-02-04T04:05:07;101758.66;;;7.62;89.99
11223;BME280;5668;52.012;8.724;2023-02-04T04:07:34;101762.28;;;7.58;89.98
11223;BME280;5668;52.012;8.724;2023-02-04T04:10:02;101763.16;;;7.57;90.34
11223;BME280;5668;52.012;8.724;2023-02-04T04:12:29;101777.88;;;7.55;89.71
11223;BME280;5668;52.012;8.724;2023-02-04T04:14:56;101785.69;;;7.53;89.71
11223;BME280;5668;52.012;8.724;2023-02-04T04:17:23;101785.81;;;7.50;89.23
11223;BME280;5668;52.012;8.724;2023-02-04T04:19:51;101795.41;;;7.47;89.23
11223;BME280;5668;52.012;8.724;2023-02-04T04:22:19;101805.75;;;7.47;89.64
11223;BME280;5668;52.012;8.724;2023-02-04T04:24:46;101807.59;;;7.43;90.13
11223;BME280;5668;52.012;8.724;2023-02-04T04:27:14;101811.03;;;7.44;89.93
11223;BME280;5668;52.012;8.724;2023-02-04T04:29:41;101815.28;;;7.45;89.91
11223;BME280;5668;52.012;8.724;2023-02-04T04:32:08;101819.56;;;7.46;90.14
11223;BME280;5668;52.012;8.724;2023-02-04T04:34:35;101818.72;;;7.45;89.91
11223;BME280;5668;52.012;8.724;2023-02-04T04:37:03;101822.22;;;7.44;89.49
11223;BME280;5668;52.012;8.724;2023-02-04T04:39:31;101824.22;;;7.36;89.89
11223;BME280;5668;52.012;8.724;2023-02-04T04:41:58;101831.06;;;7.37;90.01
11223;BME280;5668;52.012;8.724;2023-02-04T04:44:25;101835.28;;;7.39;90.36
11223;BME280;5668;52.012;8.724;2023-02-04T04:46:53;101839.63;;;7.39;90.42
11223;BME280;5668;52.012;8.724;2023-02-04T04:49:20;101842.44;;;7.31;89.68
11223;BME280;5668;52.012;8.724;2023-02-04T04:51:47;101844.34;;;7.26;90.26
11223;BME280;5668;52.012;8.724;2023-02-04T04:54:14;101843.66;;;7.21;89.49
11223;BME280;5668;52.012;8.724;2023-02-04T04:56:43;101848.00;;;7.19;91.43
11223;BME280;5668;52.012;8.724;2023-02-04T04:59:10;101849.78;;;7.17;90.82
11223;BME280;5668;52.012;8.724;2023-02-04T05:01:37;101859.31;;;7.15;90.60
11223;BME280;5668;52.012;8.724;2023-02-04T05:04:04;101872.25;;;7.15;91.46
11223;BME280;5668;52.012;8.724;2023-02-04T05:06:32;101874.91;;;7.14;90.68
11223;BME280;5668;52.012;8.724;2023-02-04T05:08:59;101870.63;;;7.13;90.94
11223;BME280;5668;52.012;8.724;2023-02-04T05:11:27;101867.19;;;7.12;91.45
11223;BME280;5668;52.012;8.724;2023-02-04T05:13:55;101868.97;;;7.10;91.98
11223;BME280;5668;52.012;8.724;2023-02-04T05:16:22;101872.44;;;7.09;91.49
11223;BME280;5668;52.012;8.724;2023-02-04T05:18:49;101865.66;;;7.07;91.90
11223;BME280;5668;52.012;8.724;2023-02-04T05:21:17;101866.56;;;7.04;90.96
11223;BME280;5668;52.012;8.724;2023-02-04T05:23:44;101869.16;;;7.04;91.32
11223;BME280;5668;52.012;8.724;2023-02-04T05:26:11;101871.03;;;6.99;91.59
11223;BME280;5668;52.012;8.724;2023-02-04T05:28:38;101877.13;;;6.96;91.11
11223;BME280;5668;52.012;8.724;2023-02-04T05:31:07;101876.28;;;6.96;91.40
11223;BME280;5668;52.012;8.724;2023-02-04T05:33:34;101869.44;;;6.95;91.59
11223;BME280;5668;52.012;8.724;2023-02-04T05:36:02;101879.03;;;6.91;90.97
11223;BME280;5668;52.012;8.724;2023-02-04T05:38:29;101889.44;;;6.88;91.71
11223;BME280;5668;52.012;8.724;2023-02-04T05:40:56;101888.66;;;6.85;91.13
11223;BME280;5668;52.012;8.724;2023-02-04T05:43:23;101893.06;;;6.83;91.17
11223;BME280;5668;52.012;8.724;2023-02-04T05:45:51;101903.44;;;6.81;91.74
11223;BME280;5668;52.012;8.724;2023-02-04T05:48:19;101906.97;;;6.77;91.32
11223;BME280;5668;52.012;8.724;2023-02-04T05:50:46;101917.25;;;6.79;91.62
11223;BME280;5668;52.012;8.724;2023-02-04T05:53:13;101915.41;;;6.84;92.35
11223;BME280;5668;52.012;8.724;2023-02-04T05:55:41;101926.53;;;6.86;91.80
11223;BME280;5668;52.012;8.724;2023-02-04T05:58:08;101934.19;;;6.90;92.12
11223;BME280;5668;52.012;8.724;2023-02-04T06:00:35;101932.44;;;6.91;91.22
11223;BME280;5668;52.012;8.724;2023-02-04T06:03:02;101932.50;;;6.88;92.02
11223;BME280;5668;52.012;8.724;2023-02-04T06:05:31;101935.28;;;6.82;91.25
11223;BME280;5668;52.012;8.724;2023-02-04T06:07:58;101925.13;;;6.76;91.00
11223;BME280;5668;52.012;8.724;2023-02-04T06:10:26;101935.53;;;6.73;91.83
11223;BME280;5668;52.012;8.724;2023-02-04T06:12:53;101942.41;;;6.74;92.18
11223;BME280;5668;52.012;8.724;2023-02-04T06:15:20;101939.66;;;6.78;92.16
11223;BME280;5668;52.012;8.724;2023-02-04T06:17:47;101940.44;;;6.82;92.11
11223;BME280;5668;52.012;8.724;2023-02-04T06:20:15;101957.53;;;6.86;92.21
11223;BME280;5668;52.012;8.724;2023-02-04T06:22:44;101968.69;;;6.88;92.40
11223;BME280;5668;52.012;8.724;2023-02-04T06:25:12;101965.19;;;6.90;91.92
11223;BME280;5668;52.012;8.724;2023-02-04T06:27:39;101969.50;;;6.90;90.96
11223;BME280;5668;52.012;8.724;2023-02-04T06:30:09;101966.09;;;6.88;91.14
11223;BME280;5668;52.012;8.724;2023-02-04T06:32:36;101971.53;;;6.79;91.05
11223;BME280;5668;52.012;8.724;2023-02-04T06:35:04;101970.00;;;6.72;90.91
11223;BME280;5668;52.012;8.724;2023-02-04T06:37:31;101978.81;;;6.65;91.50
11223;BME280;5668;52.012;8.724;2023-02-04T06:40:00;101979.84;;;6.57;91.30
11223;BME280;5668;52.012;8.724;2023-02-04T06:42:28;101985.09;;;6.54;91.40
11223;BME280;5668;52.012;8.724;2023-02-04T06:44:55;101987.78;;;6.51;90.84
11223;BME280;5668;52.012;8.724;2023-02-04T06:47:22;101984.38;;;6.49;91.81
11223;BME280;5668;52.012;8.724;2023-02-04T06:49:49;101996.41;;;6.50;91.06
11223;BME280;5668;52.012;8.724;2023-02-04T06:52:16;101992.84;;;6.54;91.58
11223;BME280;5668;52.012;8.724;2023-02-04T06:54:44;102004.78;;;6.58;92.41
11223;BME280;5668;52.012;8.724;2023-02-04T06:57:12;102004.69;;;6.61;91.38
11223;BME280;5668;52.012;8.724;2023-02-04T06:59:40;102009.78;;;6.65;91.32
11223;BME280;5668;52.012;8.724;2023-02-04T07:02:09;102020.13;;;6.65;91.53
11223;BME280;5668;52.012;8.724;2023-02-04T07:04:37;102018.44;;;6.64;91.32
11223;BME280;5668;52.012;8.724;2023-02-04T07:07:04;102024.44;;;6.64;91.64
11223;BME280;5668;52.012;8.724;2023-02-04T07:09:31;102021.91;;;6.63;91.26
11223;BME280;5668;52.012;8.724;2023-02-04T07:11:58;102021.09;;;6.60;90.92
11223;BME280;5668;52.012;8.724;2023-02-04T07:14:27;102025.38;;;6.61;91.58
11223;BME280;5668;52.012;8.724;2023-02-04T07:16:54;102028.84;;;6.60;91.66
11223;BME280;5668;52.012;8.724;2023-02-04T07:19:23;102030.53;;;6.61;91.64
11223;BME280;5668;52.012;8.724;2023-02-04T07:21:50;102034.88;;;6.61;91.24
11223;BME280;5668;52.012;8.724;2023-02-04T07:24:19;102031.38;;;6.62;91.30
11223;BME280;5668;52.012;8.724;2023-02-04T07:26:46;102030.59;;;6.60;91.25
11223;BME280;5668;52.012;8.724;2023-02-04T07:29:14;102038.38;;;6.58;91.50
11223;BME280;5668;52.012;8.724;2023-02-04T07:31:42;102035.84;;;6.55;91.33
11223;BME280;5668;52.012;8.724;2023-02-04T07:34:10;102042.81;;;6.53;92.12
11223;BME280;5668;52.012;8.724;2023-02-04T07:36:37;102047.97;;;6.53;91.64
11223;BME280;5668;52.012;8.724;2023-02-04T07:39:05;102049.66;;;6.54;91.08
11223;BME280;5668;52.012;8.724;2023-02-04T07:41:32;102056.53;;;6.55;91.61
11223;BME280;5668;52.012;8.724;2023-02-04T07:43:59;102049.66;;;6.54;91.79
11223;BME280;5668;52.012;8.724;2023-02-04T07:46:27;102054.00;;;6.54;91.84
11223;BME280;5668;52.012;8.724;2023-02-04T07:48:55;102059.19;;;6.52;91.93
11223;BME280;5668;52.012;8.724;2023-02-04T07:51:23;102065.28;;;6.50;91.95
11223;BME280;5668;52.012;8.724;2023-02-04T07:53:50;102075.59;;;6.50;91.63
11223;BME280;5668;52.012;8.724;2023-02-04T07:56:17;102076.44;;;6.50;91.12
11223;BME280;5668;52.012;8.724;2023-02-04T07:58:44;102078.19;;;6.50;91.25
11223;BME280;5668;52.012;8.724;2023-02-04T08:01:11;102080.81;;;6.48;90.94
11223;BME280;5668;52.012;8.724;2023-02-04T08:03:38;102084.25;;;6.47;91.82
11223;BME280;5668;52.012;8.724;2023-02-04T08:06:09;102083.47;;;6.45;91.13
11223;BME280;5668;52.012;8.724;2023-02-04T08:08:36;102093.84;;;6.44;91.03
11223;BME280;5668;52.012;8.724;2023-02-04T08:11:03;102088.69;;;6.42;91.76
11223;BME280;5668;52.012;8.724;2023-02-04T08:13:31;102099.88;;;6.43;91.69
11223;BME280;5668;52.012;8.724;2023-02-04T08:15:58;102106.78;;;6.42;91.89
11223;BME280;5668;52.012;8.724;2023-02-04T08:18:25;102100.75;;;6.42;91.48
11223;BME280;5668;52.012;8.724;2023-02-04T08:20:52;102102.53;;;6.40;91.51
11223;BME280;5668;52.012;8.724;2023-02-04T08:23:21;102106.00;;;6.39;91.33
11223;BME280;5668;52.012;8.724;2023-02-04T08:25:49;102106.91;;;6.38;91.32
11223;BME280;5668;52.012;8.724;2023-02-04T08:28:16;102122.38;;;6.38;91.58
11223;BME280;5668;52.012;8.724;2023-02-04T08:30:43;102111.25;;;6.36;91.00
11223;BME280;5668;52.012;8.724;2023-02-04T08:33:10;102113.16;;;6.28;91.49
11223;BME280;5668;52.012;8.724;2023-02-04T08:35:37;102123.63;;;6.21;91.37
11223;BME280;5668;52.012;8.724;2023-02-04T08:38:05;102128.91;;;6.15;91.51
11223;BME280;5668;52.012;8.724;2023-02-04T08:40:33;102122.19;;;6.08;92.23
11223;BME280;5668;52.012;8.724;2023-02-04T08:43:00;102128.31;;;6.03;91.63
11223;BME280;5668;52.012;8.724;2023-02-04T08:45:28;102134.38;;;6.02;92.14
11223;BME280;5668;52.012;8.724;2023-02-04T08:47:55;102136.16;;;6.00;92.43
11223;BME280;5668;52.012;8.724;2023-02-04T08:50:23;102135.28;;;6.01;92.49
11223;BME280;5668;52.012;8.724;2023-02-04T08:52:50;102142.91;;;6.05;92.45
11223;BME280;5668;52.012;8.724;2023-02-04T08:55:17;102143.69;;;6.09;93.06
11223;BME280;5668;52.012;8.724;2023-02-04T08:57:45;102143.63;;;6.12;92.43
11223;BME280;5668;52.012;8.724;2023-02-04T09:00:14;102143.69;;;6.09;92.22
11223;BME280;5668;52.012;8.724;2023-02-04T09:02:41;102153.13;;;6.10;92.35
11223;BME280;5668;52.012;8.724;2023-02-04T09:05:08;102158.19;;;6.14;92.99
11223;BME280;5668;52.012;8.724;2023-02-04T09:07:35;102165.09;;;6.14;91.96
11223;BME280;5668;52.012;8.724;2023-02-04T09:10:03;102171.97;;;6.13;92.13
11223;BME280;5668;52.012;8.724;2023-02-04T09:12:31;102163.38;;;6.13;92.48
11223;BME280;5668;52.012;8.724;2023-02-04T09:14:59;102171.25;;;6.08;92.10
11223;BME280;5668;52.012;8.724;2023-02-04T09:17:27;102165.22;;;6.08;92.20
11223;BME280;5668;52.012;8.724;2023-02-04T09:19:54;102169.50;;;6.09;91.84
11223;BME280;5668;52.012;8.724;2023-02-04T09:22:21;102162.50;;;6.14;91.91
11223;BME280;5668;52.012;8.724;2023-02-04T09:24:48;102166.78;;;6.15;92.34
11223;BME280;5668;52.012;8.724;2023-02-04T09:27:15;102171.00;;;6.19;92.39
11223;BME280;5668;52.012;8.724;2023-02-04T09:29:44;102173.50;;;6.22;93.14
11223;BME280;5668;52.012;8.724;2023-02-04T09:32:13;102175.97;;;6.28;91.96
11223;BME280;5668;52.012;8.724;2023-02-04T09:34:40;102182.81;;;6.29;92.00
11223;BME280;5668;52.012;8.724;2023-02-04T09:37:07;102186.13;;;6.34;90.92
11223;BME280;5668;52.012;8.724;2023-02-04T09:39:34;102185.25;;;6.35;90.68
11223;BME280;5668;52.012;8.724;2023-02-04T09:42:01;102196.41;;;6.37;90.23
11223;BME280;5668;52.012;8.724;2023-02-04T09:44:29;102196.31;;;6.40;89.42
11223;BME280;5668;52.012;8.724;2023-02-04T09:46:58;102196.28;;;6.43;88.79
11223;BME280;5668;52.012;8.724;2023-02-04T09:49:27;102200.53;;;6.46;88.55
11223;BME280;5668;52.012;8.724;2023-02-04T09:51:55;102203.84;;;6.51;88.26
11223;BME280;5668;52.012;8.724;2023-02-04T09:54:23;102201.28;;;6.49;87.46
11223;BME280;5668;52.012;8.724;2023-02-04T09:56:51;102197.84;;;6.50;86.04
11223;BME280;5668;52.012;8.724;2023-02-04T09:59:20;102207.28;;;6.51;86.44
11223;BME280;5668;52.012;8.724;2023-02-04T10:01:54;102202.88;;;6.55;85.59
11223;BME280;5668;52.012;8.724;2023-02-04T10:04:22;102214.88;;;6.57;84.99
11223;BME280;5668;52.012;8.724;2023-02-04T10:06:51;102207.94;;;6.61;84.99
11223;BME280;5668;52.012;8.724;2023-02-04T10:09:18;102212.97;;;6.66;84.69
11223;BME280;5668;52.012;8.724;2023-02-04T10:11:47;102221.56;;;6.68;84.35
11223;BME280;5668;52.012;8.724;2023-02-04T10:14:17;102217.84;;;6.78;84.69
11223;BME280;5668;52.012;8.724;2023-02-04T10:16:49;102224.50;;;6.88;85.09
11223;BME280;5668;52.012;8.724;2023-02-04T10:19:18;102229.56;;;6.92;85.16
11223;BME280;5668;52.012;8.724;2023-02-04T10:21:45;102225.13;;;6.99;86.02
11223;BME280;5668;52.012;8.724;2023-02-04T10:24:16;102230.00;;;7.10;85.63
11223;BME280;5668;52.012;8.724;2023-02-04T10:26:44;102228.94;;;7.18;86.03
11223;BME280;5668;52.012;8.724;2023-02-04T10:29:16;102230.41;;;7.28;85.32
11223;BME280;5668;52.012;8.724;2023-02-04T10:31:45;102231.06;;;7.36;85.87
11223;BME280;5668;52.012;8.724;2023-02-04T10:34:15;102236.88;;;7.45;86.16
11223;BME280;5668;52.012;8.724;2023-02-04T10:36:44;102238.31;;;7.56;85.71
11223;BME280;5668;52.012;8.724;2023-02-04T10:39:15;102226.78;;;7.68;85.39
11223;BME280;5668;52.012;8.724;2023-02-04T10:41:47;102223.88;;;7.80;85.90
11223;BME280;5668;52.012;8.724;2023-02-04T10:44:17;102233.78;;;7.95;86.19
11223;BME280;5668;52.012;8.724;2023-02-04T10:46:44;102241.25;;;8.06;85.75
11223;BME280;5668;52.012;8.724;2023-02-04T10:49:18;102234.88;;;8.18;85.90
11223;BME280;5668;52.012;8.724;2023-02-04T10:51:47;102227.59;;;8.32;86.31
11223;BME280;5668;52.012;8.724;2023-02-04T10:54:18;102227.97;;;8.47;86.71
11223;BME280;5668;52.012;8.724;2023-02-04T10:57:01;102228.38;;;8.63;86.90
11223;BME280;5668;52.012;8.724;2023-02-04T10:59:31;102232.22;;;8.78;86.92
11223;BME280;5668;52.012;8.724;2023-02-04T11:02:00;102233.69;;;8.86;84.87
11223;BME280;5668;52.012;8.724;2023-02-04T11:04:29;102241.06;;;8.99;84.56
11223;BME280;5668;52.012;8.724;2023-02-04T11:06:57;102241.63;;;9.08;84.25
11223;BME280;5668;52.012;8.724;2023-02-04T11:09:26;102242.09;;;9.19;83.57
11223;BME280;5668;52.012;8.724;2023-02-04T11:11:56;102237.50;;;9.27;81.80
11223;BME280;5668;52.012;8.724;2023-02-04T11:14:27;102235.50;;;9.36;81.87
11223;BME280;5668;52.012;8.724;2023-02-04T11:16:55;102235.03;;;9.49;81.64
11223;BME280;5668;52.012;8.724;2023-02-04T11:19:33;102235.50;;;9.60;81.34
11223;BME280;5668;52.012;8.724;2023-02-04T11:22:07;102230.72;;;9.73;81.93
11223;BME280;5668;52.012;8.724;2023-02-04T11:24:35;102230.22;;;9.87;82.20
11223;BME280;5668;52.012;8.724;2023-02-04T11:27:07;102228.88;;;10.00;82.53
11223;BME280;5668;52.012;8.724;2023-02-04T11:29:44;102223.13;;;10.15;81.51
11223;BME280;5668;52.012;8.724;2023-02-04T11:32:29;102225.41;;;10.24;80.35
11223;BME280;5668;52.012;8.724;2023-02-04T11:37:48;102235.03;;;10.22;74.99
11223;BME280;5668;52.012;8.724;2023-02-04T11:40:29;102238.69;;;10.40;75.75
11223;BME280;5668;52.012;8.724;2023-02-04T11:43:02;102247.97;;;10.45;75.39
11223;BME280;5668;52.012;8.724;2023-02-04T11:45:32;102243.91;;;10.62;76.42
11223;BME280;5668;52.012;8.724;2023-02-04T11:48:01;102248.84;;;10.68;73.22
11223;BME280;5668;52.012;8.724;2023-02-04T11:50:31;102243.53;;;10.71;72.03
11223;BME280;5668;52.012;8.724;2023-02-04T11:53:00;102241.84;;;10.70;70.19
11223;BME280;5668;52.012;8.724;2023-02-04T11:55:30;102236.00;;;10.65;69.91
11223;BME280;5668;52.012;8.724;2023-02-04T11:58:00;102233.94;;;10.73;71.53
11223;BME280;5668;52.012;8.724;2023-02-04T12:00:30;102235.19;;;10.84;72.36
11223;BME280;5668;52.012;8.724;2023-02-04T12:02:59;102233.38;;;10.86;69.92
11223;BME280;5668;52.012;8.724;2023-02-04T12:05:37;102239.19;;;10.93;70.94
11223;BME280;5668;52.012;8.724;2023-02-04T12:08:12;102250.06;;;11.03;70.51
11223;BME280;5668;52.012;8.724;2023-02-04T12:10:48;102243.88;;;11.05;70.23
11223;BME280;5668;52.012;8.724;2023-02-04T12:13:22;102236.75;;;11.10;69.70
11223;BME280;5668;52.012;8.724;2023-02-04T12:15:57;102242.25;;;11.03;67.71
11223;BME280;5668;52.012;8.724;2023-02-04T12:18:24;102240.75;;;10.97;nan
11223;BME280;5668;52.012;8.724;2023-02-04T12:20:53;102254.38;;;11.04;68.33
11223;BME280;5668;52.012;8.724;2023-02-04T12:23:21;102247.28;;;11.07;68.42
11223;BME280;5668;52.012;8.724;2023-02-04T12:25:50;102251.69;;;11.05;67.86
11223;BME280;5668;52.012;8.724;2023-02-04T12:28:17;102251.63;;;11.07;68.60
11223;BME280;5668;52.012;8.724;2023-02-04T12:30:45;102255.06;;;11.07;67.35
11223;BME280;5668;52.012;8.724;2023-02-04T12:33:13;102254.16;;;11.08;66.73
11223;BME280;5668;52.012;8.724;2023-02-04T12:35:40;102251.88;;;11.01;66.18
11223;BME280;5668;52.012;8.724;2023-02-04T12:38:07;102266.63;;;11.00;66.19
11223;BME280;5668;52.012;8.724;2023-02-04T12:40:35;102256.38;;;10.97;66.51
11223;BME280;5668;52.012;8.724;2023-02-04T12:43:03;102264.09;;;10.99;66.87
11223;BME280;5668;52.012;8.724;2023-02-04T12:45:31;102268.69;;;10.92;65.39
11223;BME280;5668;52.012;8.724;2023-02-04T12:47:58;102274.25;;;10.83;64.05
11223;BME280;5668;52.012;8.724;2023-02-04T12:50:26;102273.50;;;10.81;63.44
11223;BME280;5668;52.012;8.724;2023-02-04T12:52:54;102278.84;;;10.76;63.17
11223;BME280;5668;52.012;8.724;2023-02-04T12:55:24;102269.31;;;10.77;62.47
11223;BME280;5668;52.012;8.724;2023-02-04T12:57:51;102276.53;;;10.69;62.35
11223;BME280;5668;52.012;8.724;2023-02-04T13:00:21;102277.44;;;10.68;61.61
11223;BME280;5668;52.012;8.724;2023-02-04T13:02:48;102274.63;;;10.52;60.93
11223;BME280;5668;52.012;8.724;2023-02-04T13:05:16;102266.19;;;10.45;61.80
11223;BME280;5668;52.012;8.724;2023-02-04T13:07:43;102273.03;;;10.48;62.20
11223;BME280;5668;52.012;8.724;2023-02-04T13:10:12;102274.69;;;10.27;61.06
11223;BME280;5668;52.012;8.724;2023-02-04T13:12:40;102278.81;;;10.08;61.75
11223;BME280;5668;52.012;8.724;2023-02-04T13:15:08;102262.91;;;10.17;62.59
11223;BME280;5668;52.012;8.724;2023-02-04T13:17:37;102267.88;;;10.23;62.03